sensor_id;sensor_type;location;lat;lon;timestamp;P1;P2;P0
49343;PMS5003;35210;41.606;-87.602;2023-09-19T00:01:09;2.00;1.40;1.00
49343;PMS5003;35210;41.606;-87.602;2023-09-19T00:03:38;3.00;1.20;1.00
49343;PMS5003;35210;41.606;-87.602;2023-09-19T00:06:07;2.40;2.00;2.00
49343;PMS5003;35210;41.606;-87.602;2023-09-19T00:08:35;2.00;2.00;1.00
49343;PMS5003;35210;41.606;-87.602;2023-09-19T00:11:04;2.00;1.00;1.00
49343;PMS5003;35210;41.606;-87.602;2023-09-19T00:13:33;1.40;1.40;1.00
49343;PMS5003;35210;41.606;-87.602;2023-09-19T00:16:06;1.20;1.20;1.00
49343;PMS5003;35210;41.606;-87.602;2023-09-19T00:18:38;2.20;2.20;1.00
49343;PMS5003;35210;41.606;-87.602;2023-09-19T00:21:06;2.00;2.00;1.80
49343;PMS5003;35210;41.606;-87.602;2023-09-19T00:23:35;4.20;3.20;2.00
49343;PMS5003;35210;41.606;-87.602;2023-09-19T00:26:04;2.20;2.20;2.00
49343;PMS5003;35210;41.606;-87.602;2023-09-19T00:28:32;2.40;2.40;1.80
49343;PMS5003;35210;41.606;-87.602;2023-09-19T00:31:01;1.40;1.40;1.00
49343;PMS5003;35210;41.606;-87.602;2023-09-19T00:33:32;4.00;2.60;2.00
49343;PMS5003;35210;41.606;-87.602;2023-09-19T00:36:01;2.00;1.00;0.00
49343;PMS5003;35210;41.606;-87.602;2023-09-19T00:38:30;3.00;3.00;2.20
49343;PMS5003;35210;41.606;-87.602;2023-09-19T00:40:58;3.60;3.60;2.20
49343;PMS5003;35210;41.606;-87.602;2023-09-19T00:43:27;3.60;2.00;1.00
49343;PMS5003;35210;41.606;-87.602;2023-09-19T00:45:59;4.20;3.00;2.20
49343;PMS5003;35210;41.606;-87.602;2023-09-19T00:48:28;2.40;2.40;2.00
49343;PMS5003;35210;41.606;-87.602;2023-09-19T00:51:02;3.00;3.00;2.00
49343;PMS5003;35210;41.606;-87.602;2023-09-19T00:53:31;3.40;2.00;1.20
49343;PMS5003;35210;41.606;-87.602;2023-09-19T00:56:01;6.20;3.00;2.00
49343;PMS5003;35210;41.606;-87.602;2023-09-19T00:58:33;2.20;2.00;1.80
49343;PMS5003;35210;41.606;-87.602;2023-09-19T01:01:04;2.60;2.60;2.00
49343;PMS5003;35210;41.606;-87.602;2023-09-19T01:03:32;2.20;2.20;1.00
49343;PMS5003;35210;41.606;-87.602;2023-09-19T01:06:02;2.40;2.40;2.00
49343;PMS5003;35210;41.606;-87.602;2023-09-19T01:08:31;4.00;4.00;2.40
49343;PMS5003;35210;41.606;-87.602;2023-09-19T01:11:03;3.80;2.80;2.00
49343;PMS5003;35210;41.606;-87.602;2023-09-19T01:13:43;2.00;2.00;1.00
49343;PMS5003;35210;41.606;-87.602;2023-09-19T01:16:20;2.00;2.00;1.60
49343;PMS5003;35210;41.606;-87.602;2023-09-19T01:19:04;3.00;2.20;1.40
49343;PMS5003;35210;41.606;-87.602;2023-09-19T01:21:54;3.20;3.00;1.40
49343;PMS5003;35210;41.606;-87.602;2023-09-19T01:24:44;4.00;3.00;2.00
49343;PMS5003;35210;41.606;-87.602;2023-09-19T01:27:44;4.00;2.20;2.00
49343;PMS5003;35210;41.606;-87.602;2023-09-19T01:30:33;2.00;2.00;1.60
49343;PMS5003;35210;41.606;-87.602;2023-09-19T01:33:08;3.60;3.00;2.00
49343;PMS5003;35210;41.606;-87.602;2023-09-19T01:35:39;3.20;2.00;1.60
49343;PMS5003;35210;41.606;-87.602;2023-09-19T01:38:07;3.00;2.20;2.00
49343;PMS5003;35210;41.606;-87.602;2023-09-19T01:40:39;3.20;3.00;2.00
49343;PMS5003;35210;41.606;-87.602;2023-09-19T01:43:12;3.00;2.00;1.00
49343;PMS5003;35210;41.606;-87.602;2023-09-19T01:45:55;2.60;2.60;2.00
49343;PMS5003;35210;41.606;-87.602;2023-09-19T01:48:33;2.00;2.00;1.80
49343;PMS5003;35210;41.606;-87.602;2023-09-19T01:51:08;5.00;2.60;1.00
49343;PMS5003;35210;41.606;-87.602;2023-09-19T01:53:40;1.80;1.80;1.20
49343;PMS5003;35210;41.606;-87.602;2023-09-19T01:56:14;3.20;2.80;2.00
49343;PMS5003;35210;41.606;-87.602;2023-09-19T01:58:49;3.80;3.00;2.00
49343;PMS5003;35210;41.606;-87.602;2023-09-19T02:01:24;2.00;1.80;1.00
49343;PMS5003;35210;41.606;-87.602;2023-09-19T02:03:55;3.60;2.60;1.80
49343;PMS5003;35210;41.606;-87.602;2023-09-19T02:06:25;3.00;2.80;1.80
49343;PMS5003;35210;41.606;-87.602;2023-09-19T02:08:54;3.00;3.00;2.00
49343;PMS5003;35210;41.606;-87.602;2023-09-19T02:11:22;5.00;2.80;2.00
49343;PMS5003;35210;41.606;-87.602;2023-09-19T02:13:50;3.20;3.00;2.00
49343;PMS5003;35210;41.606;-87.602;2023-09-19T02:16:20;3.20;3.20;2.00
49343;PMS5003;35210;41.606;-87.602;2023-09-19T02:18:49;2.00;2.00;1.00
49343;PMS5003;35210;41.606;-87.602;2023-09-19T02:21:19;2.60;2.60;2.00
49343;PMS5003;35210;41.606;-87.602;2023-09-19T02:23:47;2.00;2.00;2.00
49343;PMS5003;35210;41.606;-87.602;2023-09-19T02:26:15;2.20;2.20;1.20
49343;PMS5003;35210;41.606;-87.602;2023-09-19T02:28:44;2.80;2.60;2.00
49343;PMS5003;35210;41.606;-87.602;2023-09-19T02:31:13;1.80;1.80;1.80
49343;PMS5003;35210;41.606;-87.602;2023-09-19T02:33:42;3.00;3.00;2.20
49343;PMS5003;35210;41.606;-87.602;2023-09-19T02:36:13;4.20;4.20;3.00
49343;PMS5003;35210;41.606;-87.602;2023-09-19T02:38:43;2.20;2.20;1.80
49343;PMS5003;35210;41.606;-87.602;2023-09-19T02:41:11;3.00;3.00;2.20
49343;PMS5003;35210;41.606;-87.602;2023-09-19T02:43:39;4.20;2.60;2.20
49343;PMS5003;35210;41.606;-87.602;2023-09-19T02:46:08;3.80;3.80;2.80
49343;PMS5003;35210;41.606;-87.602;2023-09-19T02:48:37;2.00;2.00;1.40
49343;PMS5003;35210;41.606;-87.602;2023-09-19T02:51:05;3.00;3.00;2.00
49343;PMS5003;35210;41.606;-87.602;2023-09-19T02:53:35;2.20;2.20;2.00
49343;PMS5003;35210;41.606;-87.602;2023-09-19T02:56:03;2.40;2.40;1.80
49343;PMS5003;35210;41.606;-87.602;2023-09-19T02:58:32;2.60;2.60;2.00
49343;PMS5003;35210;41.606;-87.602;2023-09-19T03:01:07;3.00;1.80;1.60
49343;PMS5003;35210;41.606;-87.602;2023-09-19T03:03:36;3.60;3.60;1.60
49343;PMS5003;35210;41.606;-87.602;2023-09-19T03:06:06;3.80;3.40;2.60
49343;PMS5003;35210;41.606;-87.602;2023-09-19T03:08:37;2.60;2.60;2.00
49343;PMS5003;35210;41.606;-87.602;2023-09-19T03:11:08;5.20;4.60;2.20
49343;PMS5003;35210;41.606;-87.602;2023-09-19T03:13:38;3.40;3.40;2.60
49343;PMS5003;35210;41.606;-87.602;2023-09-19T03:16:08;2.20;2.00;2.00
49343;PMS5003;35210;41.606;-87.602;2023-09-19T03:18:36;3.80;3.80;3.00
49343;PMS5003;35210;41.606;-87.602;2023-09-19T03:21:05;2.60;2.20;1.40
49343;PMS5003;35210;41.606;-87.602;2023-09-19T03:23:33;5.00;3.00;2.40
49343;PMS5003;35210;41.606;-87.602;2023-09-19T03:26:03;3.00;2.80;2.60
49343;PMS5003;35210;41.606;-87.602;2023-09-19T03:28:33;3.20;2.80;2.00
49343;PMS5003;35210;41.606;-87.602;2023-09-19T03:31:01;5.40;4.00;3.00
49343;PMS5003;35210;41.606;-87.602;2023-09-19T03:33:31;2.00;0.40;0.00
49343;PMS5003;35210;41.606;-87.602;2023-09-19T03:36:00;5.40;3.00;2.00
49343;PMS5003;35210;41.606;-87.602;2023-09-19T03:38:30;2.20;2.20;1.40
49343;PMS5003;35210;41.606;-87.602;2023-09-19T03:40:59;3.00;3.00;3.00
49343;PMS5003;35210;41.606;-87.602;2023-09-19T03:43:29;5.60;4.00;4.00
49343;PMS5003;35210;41.606;-87.602;2023-09-19T03:46:01;4.40;4.00;3.00
49343;PMS5003;35210;41.606;-87.602;2023-09-19T03:48:30;2.80;2.80;2.60
49343;PMS5003;35210;41.606;-87.602;2023-09-19T03:51:00;2.60;2.20;2.00
49343;PMS5003;35210;41.606;-87.602;2023-09-19T03:53:28;4.20;4.20;3.20
49343;PMS5003;35210;41.606;-87.602;2023-09-19T03:55:56;3.60;3.60;2.00
49343;PMS5003;35210;41.606;-87.602;2023-09-19T03:58:25;4.60;3.60;3.00
49343;PMS5003;35210;41.606;-87.602;2023-09-19T04:01:06;1.00;1.00;1.00
49343;PMS5003;35210;41.606;-87.602;2023-09-19T04:03:34;3.80;3.80;2.00
49343;PMS5003;35210;41.606;-87.602;2023-09-19T04:06:12;4.60;3.40;2.40
49343;PMS5003;35210;41.606;-87.602;2023-09-19T04:08:40;4.00;4.00;3.00
49343;PMS5003;35210;41.606;-87.602;2023-09-19T04:11:08;1.40;1.40;1.40
49343;PMS5003;35210;41.606;-87.602;2023-09-19T04:13:37;4.20;4.20;4.00
49343;PMS5003;35210;41.606;-87.602;2023-09-19T04:16:06;5.40;3.40;2.80
49343;PMS5003;35210;41.606;-87.602;2023-09-19T04:18:34;3.80;3.80;2.80
49343;PMS5003;35210;41.606;-87.602;2023-09-19T04:21:05;4.80;3.00;1.80
49343;PMS5003;35210;41.606;-87.602;2023-09-19T04:23:33;4.00;4.00;2.40
49343;PMS5003;35210;41.606;-87.602;2023-09-19T04:26:01;4.20;4.00;2.80
49343;PMS5003;35210;41.606;-87.602;2023-09-19T04:28:31;4.00;3.80;2.40
49343;PMS5003;35210;41.606;-87.602;2023-09-19T04:30:59;3.00;3.00;3.00
49343;PMS5003;35210;41.606;-87.602;2023-09-19T04:33:29;3.40;3.40;2.80
49343;PMS5003;35210;41.606;-87.602;2023-09-19T04:35:59;4.00;4.00;3.00
49343;PMS5003;35210;41.606;-87.602;2023-09-19T04:38:29;4.00;3.20;2.00
49343;PMS5003;35210;41.606;-87.602;2023-09-19T04:40:58;3.00;3.00;2.00
49343;PMS5003;35210;41.606;-87.602;2023-09-19T04:43:26;4.60;3.60;2.80
49343;PMS5003;35210;41.606;-87.602;2023-09-19T04:45:54;4.80;3.60;2.00
49343;PMS5003;35210;41.606;-87.602;2023-09-19T04:48:22;5.20;4.00;2.80
49343;PMS5003;35210;41.606;-87.602;2023-09-19T04:50:52;5.80;4.80;3.60
49343;PMS5003;35210;41.606;-87.602;2023-09-19T04:53:21;5.00;5.00;4.00
49343;PMS5003;35210;41.606;-87.602;2023-09-19T04:55:50;3.80;3.80;2.80
49343;PMS5003;35210;41.606;-87.602;2023-09-19T04:58:21;3.80;3.80;3.00
49343;PMS5003;35210;41.606;-87.602;2023-09-19T05:00:49;4.00;2.00;1.80
49343;PMS5003;35210;41.606;-87.602;2023-09-19T05:03:17;3.60;2.60;1.40
49343;PMS5003;35210;41.606;-87.602;2023-09-19T05:05:46;5.60;2.80;1.80
49343;PMS5003;35210;41.606;-87.602;2023-09-19T05:08:16;3.80;3.80;2.40
49343;PMS5003;35210;41.606;-87.602;2023-09-19T05:10:44;2.80;2.80;2.60
49343;PMS5003;35210;41.606;-87.602;2023-09-19T05:13:12;5.00;5.00;3.20
49343;PMS5003;35210;41.606;-87.602;2023-09-19T05:15:40;3.60;3.60;2.40
49343;PMS5003;35210;41.606;-87.602;2023-09-19T05:18:08;4.00;4.00;2.80
49343;PMS5003;35210;41.606;-87.602;2023-09-19T05:20:36;3.80;3.80;2.80
49343;PMS5003;35210;41.606;-87.602;2023-09-19T05:23:05;2.80;2.80;2.60
49343;PMS5003;35210;41.606;-87.602;2023-09-19T05:25:39;3.80;3.60;2.20
49343;PMS5003;35210;41.606;-87.602;2023-09-19T05:28:08;3.20;3.20;2.40
49343;PMS5003;35210;41.606;-87.602;2023-09-19T05:30:38;5.20;3.00;2.40
49343;PMS5003;35210;41.606;-87.602;2023-09-19T05:33:06;4.00;3.60;3.00
49343;PMS5003;35210;41.606;-87.602;2023-09-19T05:35:35;4.40;4.40;3.40
49343;PMS5003;35210;41.606;-87.602;2023-09-19T05:38:05;3.00;3.00;2.20
49343;PMS5003;35210;41.606;-87.602;2023-09-19T05:40:34;4.00;3.00;2.00
49343;PMS5003;35210;41.606;-87.602;2023-09-19T05:43:06;1.80;1.80;1.20
49343;PMS5003;35210;41.606;-87.602;2023-09-19T05:45:34;4.00;3.40;1.40
49343;PMS5003;35210;41.606;-87.602;2023-09-19T05:48:07;4.40;4.00;2.00
49343;PMS5003;35210;41.606;-87.602;2023-09-19T05:50:37;1.60;1.60;1.40
49343;PMS5003;35210;41.606;-87.602;2023-09-19T05:53:05;4.40;3.40;1.80
49343;PMS5003;35210;41.606;-87.602;2023-09-19T05:55:33;3.00;3.00;2.00
49343;PMS5003;35210;41.606;-87.602;2023-09-19T05:58:02;2.40;2.40;1.40
49343;PMS5003;35210;41.606;-87.602;2023-09-19T06:00:32;2.20;2.20;2.20
49343;PMS5003;35210;41.606;-87.602;2023-09-19T06:03:02;5.20;4.00;3.00
49343;PMS5003;35210;41.606;-87.602;2023-09-19T06:05:30;2.00;2.00;1.60
49343;PMS5003;35210;41.606;-87.602;2023-09-19T06:07:58;3.80;3.20;2.80
49343;PMS5003;35210;41.606;-87.602;2023-09-19T06:10:33;3.40;3.40;2.60
49343;PMS5003;35210;41.606;-87.602;2023-09-19T06:13:01;3.40;3.00;2.00
49343;PMS5003;35210;41.606;-87.602;2023-09-19T06:15:33;3.00;3.00;1.20
49343;PMS5003;35210;41.606;-87.602;2023-09-19T06:18:02;2.60;2.60;2.00
49343;PMS5003;35210;41.606;-87.602;2023-09-19T06:20:30;1.80;1.80;1.00
49343;PMS5003;35210;41.606;-87.602;2023-09-19T06:22:58;1.40;1.40;0.00
49343;PMS5003;35210;41.606;-87.602;2023-09-19T06:25:27;3.20;3.20;2.80
49343;PMS5003;35210;41.606;-87.602;2023-09-19T06:27:56;2.80;2.00;1.40
49343;PMS5003;35210;41.606;-87.602;2023-09-19T06:30:24;2.00;2.00;1.80
49343;PMS5003;35210;41.606;-87.602;2023-09-19T06:32:57;3.00;3.00;2.80
49343;PMS5003;35210;41.606;-87.602;2023-09-19T06:35:26;3.00;3.00;2.00
49343;PMS5003;35210;41.606;-87.602;2023-09-19T06:37:55;3.40;3.40;2.60
49343;PMS5003;35210;41.606;-87.602;2023-09-19T06:40:24;2.00;2.00;2.00
49343;PMS5003;35210;41.606;-87.602;2023-09-19T06:42:53;3.20;1.60;1.00
49343;PMS5003;35210;41.606;-87.602;2023-09-19T06:45:21;2.20;2.20;1.00
49343;PMS5003;35210;41.606;-87.602;2023-09-19T06:47:52;3.40;2.80;1.40
49343;PMS5003;35210;41.606;-87.602;2023-09-19T06:50:24;2.20;2.20;1.40
49343;PMS5003;35210;41.606;-87.602;2023-09-19T06:52:54;3.40;3.40;2.40
49343;PMS5003;35210;41.606;-87.602;2023-09-19T06:55:26;5.60;4.00;2.00
49343;PMS5003;35210;41.606;-87.602;2023-09-19T06:57:56;4.20;4.00;3.00
49343;PMS5003;35210;41.606;-87.602;2023-09-19T07:00:25;4.00;3.20;2.20
49343;PMS5003;35210;41.606;-87.602;2023-09-19T07:02:57;3.00;3.00;2.20
49343;PMS5003;35210;41.606;-87.602;2023-09-19T07:05:28;1.80;1.20;1.00
49343;PMS5003;35210;41.606;-87.602;2023-09-19T07:07:58;1.00;1.00;0.00
49343;PMS5003;35210;41.606;-87.602;2023-09-19T07:10:27;4.00;3.00;2.00
49343;PMS5003;35210;41.606;-87.602;2023-09-19T07:12:56;3.00;3.00;2.00
49343;PMS5003;35210;41.606;-87.602;2023-09-19T07:15:25;3.20;3.20;2.20
49343;PMS5003;35210;41.606;-87.602;2023-09-19T07:17:53;5.20;3.00;2.60
49343;PMS5003;35210;41.606;-87.602;2023-09-19T07:20:22;3.40;1.60;1.00
49343;PMS5003;35210;41.606;-87.602;2023-09-19T07:22:56;4.60;3.80;2.60
49343;PMS5003;35210;41.606;-87.602;2023-09-19T07:25:26;5.60;4.60;2.80
49343;PMS5003;35210;41.606;-87.602;2023-09-19T07:27:55;3.00;3.00;2.20
49343;PMS5003;35210;41.606;-87.602;2023-09-19T07:30:25;4.00;3.80;2.40
49343;PMS5003;35210;41.606;-87.602;2023-09-19T07:32:54;2.00;2.00;1.00
49343;PMS5003;35210;41.606;-87.602;2023-09-19T07:35:22;6.60;4.40;3.00
49343;PMS5003;35210;41.606;-87.602;2023-09-19T07:37:51;3.00;3.00;2.80
49343;PMS5003;35210;41.606;-87.602;2023-09-19T07:40:21;2.60;2.60;2.00
49343;PMS5003;35210;41.606;-87.602;2023-09-19T07:42:52;3.60;1.80;1.80
49343;PMS5003;35210;41.606;-87.602;2023-09-19T07:45:20;1.60;1.60;1.60
49343;PMS5003;35210;41.606;-87.602;2023-09-19T07:47:50;3.80;3.80;2.60
49343;PMS5003;35210;41.606;-87.602;2023-09-19T07:50:19;3.80;3.00;2.60
49343;PMS5003;35210;41.606;-87.602;2023-09-19T07:52:47;3.00;3.00;2.60
49343;PMS5003;35210;41.606;-87.602;2023-09-19T07:55:18;6.20;3.60;2.60
49343;PMS5003;35210;41.606;-87.602;2023-09-19T07:57:50;3.80;2.80;2.00
49343;PMS5003;35210;41.606;-87.602;2023-09-19T08:00:19;2.40;2.00;1.00
49343;PMS5003;35210;41.606;-87.602;2023-09-19T08:02:48;3.00;3.00;2.60
49343;PMS5003;35210;41.606;-87.602;2023-09-19T08:05:17;4.60;3.00;3.00
49343;PMS5003;35210;41.606;-87.602;2023-09-19T08:07:46;4.20;4.20;3.00
49343;PMS5003;35210;41.606;-87.602;2023-09-19T08:10:14;5.00;5.00;3.80
49343;PMS5003;35210;41.606;-87.602;2023-09-19T08:12:45;3.80;2.80;2.20
49343;PMS5003;35210;41.606;-87.602;2023-09-19T08:15:18;3.40;3.00;2.00
49343;PMS5003;35210;41.606;-87.602;2023-09-19T08:17:47;2.20;2.20;1.80
49343;PMS5003;35210;41.606;-87.602;2023-09-19T08:20:15;4.00;4.00;2.00
49343;PMS5003;35210;41.606;-87.602;2023-09-19T08:22:46;5.00;3.80;3.00
49343;PMS5003;35210;41.606;-87.602;2023-09-19T08:25:15;3.60;3.60;3.00
49343;PMS5003;35210;41.606;-87.602;2023-09-19T08:27:44;4.60;4.60;3.00
49343;PMS5003;35210;41.606;-87.602;2023-09-19T08:30:16;2.40;2.40;2.00
49343;PMS5003;35210;41.606;-87.602;2023-09-19T08:32:49;4.00;4.00;3.00
49343;PMS5003;35210;41.606;-87.602;2023-09-19T08:35:17;2.60;2.60;2.00
49343;PMS5003;35210;41.606;-87.602;2023-09-19T08:37:46;1.60;0.00;0.00
49343;PMS5003;35210;41.606;-87.602;2023-09-19T08:40:14;2.80;2.80;1.60
49343;PMS5003;35210;41.606;-87.602;2023-09-19T08:42:52;4.00;4.00;2.80
49343;PMS5003;35210;41.606;-87.602;2023-09-19T08:45:23;3.80;3.40;2.60
49343;PMS5003;35210;41.606;-87.602;2023-09-19T08:47:54;2.60;2.60;2.40
49343;PMS5003;35210;41.606;-87.602;2023-09-19T08:50:31;4.20;3.00;2.60
49343;PMS5003;35210;41.606;-87.602;2023-09-19T08:53:10;3.20;2.80;2.20
49343;PMS5003;35210;41.606;-87.602;2023-09-19T08:55:43;3.60;3.60;3.00
49343;PMS5003;35210;41.606;-87.602;2023-09-19T08:58:13;4.80;4.00;3.00
49343;PMS5003;35210;41.606;-87.602;2023-09-19T09:00:48;4.60;3.00;2.00
49343;PMS5003;35210;41.606;-87.602;2023-09-19T09:03:20;5.00;4.00;3.00
49343;PMS5003;35210;41.606;-87.602;2023-09-19T09:05:50;4.20;3.40;2.20
49343;PMS5003;35210;41.606;-87.602;2023-09-19T09:08:19;3.40;3.40;3.00
49343;PMS5003;35210;41.606;-87.602;2023-09-19T09:10:48;4.60;3.00;3.00
49343;PMS5003;35210;41.606;-87.602;2023-09-19T09:13:17;3.00;3.00;2.60
49343;PMS5003;35210;41.606;-87.602;2023-09-19T09:15:49;4.20;3.20;1.80
49343;PMS5003;35210;41.606;-87.602;2023-09-19T09:18:17;3.40;3.40;2.60
49343;PMS5003;35210;41.606;-87.602;2023-09-19T09:20:46;5.00;3.00;3.00
49343;PMS5003;35210;41.606;-87.602;2023-09-19T09:23:14;3.00;3.00;2.00
49343;PMS5003;35210;41.606;-87.602;2023-09-19T09:25:49;2.20;2.20;1.80
49343;PMS5003;35210;41.606;-87.602;2023-09-19T09:28:22;4.80;3.40;1.60
49343;PMS5003;35210;41.606;-87.602;2023-09-19T09:30:54;2.60;2.60;2.00
49343;PMS5003;35210;41.606;-87.602;2023-09-19T09:33:23;4.40;3.60;3.00
49343;PMS5003;35210;41.606;-87.602;2023-09-19T09:35:53;2.40;2.40;2.00
49343;PMS5003;35210;41.606;-87.602;2023-09-19T09:38:24;1.60;1.60;1.00
49343;PMS5003;35210;41.606;-87.602;2023-09-19T09:40:57;4.40;4.00;3.40
49343;PMS5003;35210;41.606;-87.602;2023-09-19T09:43:28;6.00;4.20;3.00
49343;PMS5003;35210;41.606;-87.602;2023-09-19T09:46:10;3.20;3.00;2.00
49343;PMS5003;35210;41.606;-87.602;2023-09-19T09:48:56;6.00;4.60;4.00
49343;PMS5003;35210;41.606;-87.602;2023-09-19T09:51:51;4.60;4.60;3.00
49343;PMS5003;35210;41.606;-87.602;2023-09-19T09:54:31;4.60;3.60;2.60
49343;PMS5003;35210;41.606;-87.602;2023-09-19T09:57:04;3.00;3.00;2.00
49343;PMS5003;35210;41.606;-87.602;2023-09-19T09:59:46;3.40;3.40;2.00
49343;PMS5003;35210;41.606;-87.602;2023-09-19T10:02:18;2.60;2.60;1.20
49343;PMS5003;35210;41.606;-87.602;2023-09-19T10:04:51;4.80;4.80;3.60
49343;PMS5003;35210;41.606;-87.602;2023-09-19T10:07:25;3.00;3.00;2.00
49343;PMS5003;35210;41.606;-87.602;2023-09-19T10:10:01;3.00;3.00;2.00
49343;PMS5003;35210;41.606;-87.602;2023-09-19T10:12:47;2.00;2.00;2.00
49343;PMS5003;35210;41.606;-87.602;2023-09-19T10:15:16;4.20;4.20;3.00
49343;PMS5003;35210;41.606;-87.602;2023-09-19T10:17:48;3.40;3.40;2.80
49343;PMS5003;35210;41.606;-87.602;2023-09-19T10:20:21;3.40;3.40;2.40
49343;PMS5003;35210;41.606;-87.602;2023-09-19T10:23:02;4.00;4.00;2.40
49343;PMS5003;35210;41.606;-87.602;2023-09-19T10:25:36;3.60;3.20;2.80
49343;PMS5003;35210;41.606;-87.602;2023-09-19T10:28:05;5.00;5.00;3.80
49343;PMS5003;35210;41.606;-87.602;2023-09-19T10:30:41;4.00;4.00;2.80
49343;PMS5003;35210;41.606;-87.602;2023-09-19T10:33:14;3.20;2.60;2.00
49343;PMS5003;35210;41.606;-87.602;2023-09-19T10:35:45;3.60;3.00;2.20
49343;PMS5003;35210;41.606;-87.602;2023-09-19T10:38:17;6.40;6.00;4.40
49343;PMS5003;35210;41.606;-87.602;2023-09-19T10:40:48;3.00;3.00;1.60
49343;PMS5003;35210;41.606;-87.602;2023-09-19T10:43:20;5.60;5.20;4.00
49343;PMS5003;35210;41.606;-87.602;2023-09-19T10:45:52;5.20;4.00;3.00
49343;PMS5003;35210;41.606;-87.602;2023-09-19T10:48:26;4.40;3.60;2.20
49343;PMS5003;35210;41.606;-87.602;2023-09-19T10:50:56;4.40;4.40;3.40
49343;PMS5003;35210;41.606;-87.602;2023-09-19T10:53:32;5.40;3.60;3.00
49343;PMS5003;35210;41.606;-87.602;2023-09-19T10:56:11;5.40;5.40;4.60
49343;PMS5003;35210;41.606;-87.602;2023-09-19T10:58:47;5.00;5.00;4.00
49343;PMS5003;35210;41.606;-87.602;2023-09-19T11:01:16;5.00;5.00;4.20
49343;PMS5003;35210;41.606;-87.602;2023-09-19T11:03:47;6.00;4.20;2.80
49343;PMS5003;35210;41.606;-87.602;2023-09-19T11:06:18;5.00;5.00;3.40
49343;PMS5003;35210;41.606;-87.602;2023-09-19T11:08:54;4.80;4.80;4.00
49343;PMS5003;35210;41.606;-87.602;2023-09-19T11:14:41;5.00;4.40;4.00
49343;PMS5003;35210;41.606;-87.602;2023-09-19T11:20:24;5.40;5.00;4.00
49343;PMS5003;35210;41.606;-87.602;2023-09-19T11:23:18;5.20;5.20;4.00
49343;PMS5003;35210;41.606;-87.602;2023-09-19T11:25:52;5.40;4.80;4.40
49343;PMS5003;35210;41.606;-87.602;2023-09-19T11:28:30;7.80;7.80;5.40
49343;PMS5003;35210;41.606;-87.602;2023-09-19T11:31:00;7.00;7.00;4.00
49343;PMS5003;35210;41.606;-87.602;2023-09-19T11:40:38;7.00;7.00;5.60
49343;PMS5003;35210;41.606;-87.602;2023-09-19T11:43:30;5.60;5.60;5.00
49343;PMS5003;35210;41.606;-87.602;2023-09-19T11:46:04;7.00;5.80;4.00
49343;PMS5003;35210;41.606;-87.602;2023-09-19T11:48:34;8.00;8.00;6.00
49343;PMS5003;35210;41.606;-87.602;2023-09-19T11:51:13;7.60;7.40;5.60
49343;PMS5003;35210;41.606;-87.602;2023-09-19T11:53:49;7.80;7.00;5.60
49343;PMS5003;35210;41.606;-87.602;2023-09-19T11:56:20;7.40;6.60;4.20
49343;PMS5003;35210;41.606;-87.602;2023-09-19T11:58:50;7.00;7.00;5.80
49343;PMS5003;35210;41.606;-87.602;2023-09-19T12:01:24;6.80;5.40;4.60
49343;PMS5003;35210;41.606;-87.602;2023-09-19T12:03:55;8.00;8.00;5.00
49343;PMS5003;35210;41.606;-87.602;2023-09-19T12:06:24;10.60;7.00;5.80
49343;PMS5003;35210;41.606;-87.602;2023-09-19T12:08:55;6.60;6.60;5.00
49343;PMS5003;35210;41.606;-87.602;2023-09-19T12:11:27;8.60;8.40;6.00
49343;PMS5003;35210;41.606;-87.602;2023-09-19T12:13:59;7.80;6.80;5.00
49343;PMS5003;35210;41.606;-87.602;2023-09-19T12:16:27;7.40;7.00;5.00
49343;PMS5003;35210;41.606;-87.602;2023-09-19T12:18:56;11.60;8.00;6.00
49343;PMS5003;35210;41.606;-87.602;2023-09-19T12:21:25;4.40;4.40;3.60
49343;PMS5003;35210;41.606;-87.602;2023-09-19T12:24:06;7.60;7.00;4.60
49343;PMS5003;35210;41.606;-87.602;2023-09-19T12:26:44;6.80;6.80;6.00
49343;PMS5003;35210;41.606;-87.602;2023-09-19T12:29:13;8.60;8.60;5.80
49343;PMS5003;35210;41.606;-87.602;2023-09-19T12:31:49;8.60;7.00;5.00
49343;PMS5003;35210;41.606;-87.602;2023-09-19T12:34:23;9.00;9.00;6.40
49343;PMS5003;35210;41.606;-87.602;2023-09-19T12:37:07;8.00;6.60;5.40
49343;PMS5003;35210;41.606;-87.602;2023-09-19T12:39:42;6.40;5.60;4.00
49343;PMS5003;35210;41.606;-87.602;2023-09-19T12:42:16;7.60;6.20;5.20
49343;PMS5003;35210;41.606;-87.602;2023-09-19T12:44:46;8.00;7.00;5.80
49343;PMS5003;35210;41.606;-87.602;2023-09-19T12:47:17;7.60;7.00;5.20
49343;PMS5003;35210;41.606;-87.602;2023-09-19T12:52:40;7.80;7.20;5.00
49343;PMS5003;35210;41.606;-87.602;2023-09-19T12:55:20;6.40;6.40;5.40
49343;PMS5003;35210;41.606;-87.602;2023-09-19T12:57:58;10.80;7.80;6.40
49343;PMS5003;35210;41.606;-87.602;2023-09-19T13:00:35;6.80;6.80;5.00
49343;PMS5003;35210;41.606;-87.602;2023-09-19T13:03:14;9.20;7.80;5.60
49343;PMS5003;35210;41.606;-87.602;2023-09-19T13:05:49;10.60;7.60;5.60
49343;PMS5003;35210;41.606;-87.602;2023-09-19T13:08:21;9.00;9.00;6.80
49343;PMS5003;35210;41.606;-87.602;2023-09-19T13:11:01;13.00;10.00;7.20
49343;PMS5003;35210;41.606;-87.602;2023-09-19T13:13:33;11.60;11.20;8.80
49343;PMS5003;35210;41.606;-87.602;2023-09-19T13:16:03;12.60;10.00;7.80
49343;PMS5003;35210;41.606;-87.602;2023-09-19T13:18:41;12.00;11.00;8.00
49343;PMS5003;35210;41.606;-87.602;2023-09-19T13:21:12;7.20;7.20;5.20
49343;PMS5003;35210;41.606;-87.602;2023-09-19T13:23:50;9.20;8.00;6.20
49343;PMS5003;35210;41.606;-87.602;2023-09-19T13:26:20;8.00;6.80;5.00
49343;PMS5003;35210;41.606;-87.602;2023-09-19T13:28:50;8.80;8.80;6.00
49343;PMS5003;35210;41.606;-87.602;2023-09-19T13:31:18;10.60;7.80;5.20
49343;PMS5003;35210;41.606;-87.602;2023-09-19T13:33:47;7.00;7.00;5.00
49343;PMS5003;35210;41.606;-87.602;2023-09-19T13:36:17;9.00;8.00;5.80
49343;PMS5003;35210;41.606;-87.602;2023-09-19T13:38:45;8.00;8.00;5.40
49343;PMS5003;35210;41.606;-87.602;2023-09-19T13:41:15;7.20;5.80;4.60
49343;PMS5003;35210;41.606;-87.602;2023-09-19T13:43:43;5.60;5.40;4.80
49343;PMS5003;35210;41.606;-87.602;2023-09-19T13:46:15;8.40;6.00;4.20
49343;PMS5003;35210;41.606;-87.602;2023-09-19T13:48:50;7.00;5.80;2.60
49343;PMS5003;35210;41.606;-87.602;2023-09-19T13:51:20;5.60;5.20;4.00
49343;PMS5003;35210;41.606;-87.602;2023-09-19T13:53:48;7.40;7.40;5.40
49343;PMS5003;35210;41.606;-87.602;2023-09-19T13:56:16;7.20;4.00;3.40
49343;PMS5003;35210;41.606;-87.602;2023-09-19T13:58:44;8.60;7.60;4.80
49343;PMS5003;35210;41.606;-87.602;2023-09-19T14:01:12;7.00;6.80;5.20
49343;PMS5003;35210;41.606;-87.602;2023-09-19T14:03:42;6.80;6.20;4.60
49343;PMS5003;35210;41.606;-87.602;2023-09-19T14:06:12;6.00;6.00;5.00
49343;PMS5003;35210;41.606;-87.602;2023-09-19T14:08:40;6.00;6.00;5.00
49343;PMS5003;35210;41.606;-87.602;2023-09-19T14:11:08;9.60;7.20;4.80
49343;PMS5003;35210;41.606;-87.602;2023-09-19T14:13:36;5.80;5.80;4.20
49343;PMS5003;35210;41.606;-87.602;2023-09-19T14:16:05;6.00;6.00;4.40
49343;PMS5003;35210;41.606;-87.602;2023-09-19T14:18:36;6.20;6.20;5.60
49343;PMS5003;35210;41.606;-87.602;2023-09-19T14:21:04;9.60;8.20;5.60
49343;PMS5003;35210;41.606;-87.602;2023-09-19T14:23:34;6.80;6.20;5.00
49343;PMS5003;35210;41.606;-87.602;2023-09-19T14:26:03;7.20;7.20;5.00
49343;PMS5003;35210;41.606;-87.602;2023-09-19T14:28:32;8.80;8.20;5.80
49343;PMS5003;35210;41.606;-87.602;2023-09-19T14:31:03;10.80;8.00;5.00
49343;PMS5003;35210;41.606;-87.602;2023-09-19T14:33:33;7.60;7.00;5.80
49343;PMS5003;35210;41.606;-87.602;2023-09-19T14:36:06;7.40;7.20;6.40